createdAt,value
2018-10-09T00:02:28.469Z,101335.37
2018-10-09T00:04:58.058Z,101333.62
2018-10-09T00:07:27.459Z,101330.96
2018-10-09T00:09:56.932Z,101334.49
2018-10-09T00:12:26.271Z,101335.80
2018-10-09T00:14:56.084Z,101334.89
2018-10-09T00:17:25.484Z,101337.09
2018-10-09T00:19:55.149Z,101330.05
2018-10-09T00:22:25.046Z,101337.11
2018-10-09T00:24:54.372Z,101339.70
2018-10-09T00:27:24.142Z,101331.77
2018-10-09T00:29:53.811Z,101327.80
2018-10-09T00:32:23.222Z,101329.14
2018-10-09T00:34:52.573Z,101330.97
2018-10-09T00:37:22.327Z,101332.69
2018-10-09T00:39:51.690Z,101335.32
2018-10-09T00:42:21.160Z,101335.32
2018-10-09T00:44:50.798Z,101341.48
2018-10-09T00:47:20.203Z,101341.93
2018-10-09T00:49:49.720Z,101336.64
2018-10-09T00:52:19.335Z,101330.05
2018-10-09T00:54:48.642Z,101339.75
2018-10-09T00:57:18.030Z,101332.25
2018-10-09T00:59:47.261Z,101324.79
2018-10-09T01:02:16.854Z,101323.45
2018-10-09T01:04:46.372Z,101327.41
2018-10-09T01:07:15.905Z,101324.79
2018-10-09T01:09:45.563Z,101320.80
2018-10-09T01:12:15.080Z,101309.77
2018-10-09T01:14:44.651Z,101312.00
2018-10-09T01:17:14.057Z,101310.21
2018-10-09T01:19:43.738Z,101301.88
2018-10-09T01:22:13.730Z,101287.36
2018-10-09T01:24:44.361Z,101288.66
2018-10-09T01:27:13.977Z,101300.56
2018-10-09T01:29:43.864Z,101300.09
2018-10-09T01:32:13.498Z,101296.54
2018-10-09T01:34:43.311Z,101308.89
2018-10-09T01:37:13.067Z,101311.52
2018-10-09T01:39:42.551Z,101308.02
2018-10-09T01:42:11.919Z,101310.66
2018-10-09T01:44:41.932Z,101304.48
2018-10-09T01:47:11.456Z,101307.13
2018-10-09T01:49:41.015Z,101301.83
2018-10-09T01:52:11.280Z,101312.41
2018-10-09T01:54:40.586Z,101016.06
2018-10-09T01:57:09.875Z,101308.01
2018-10-09T01:59:39.514Z,101301.83
2018-10-09T02:02:08.946Z,101300.51
2018-10-09T02:04:38.454Z,101294.80
2018-10-09T02:07:08.015Z,101295.64
2018-10-09T02:09:37.389Z,101299.56
2018-10-09T02:12:06.778Z,101302.66
2018-10-09T02:14:36.431Z,101302.30
2018-10-09T02:17:05.730Z,101294.78
2018-10-09T02:19:35.336Z,101290.38
2018-10-09T02:22:05.041Z,101287.73
2018-10-09T02:24:34.664Z,101286.41
2018-10-09T02:27:04.187Z,101286.41
2018-10-09T02:29:33.600Z,101278.02
2018-10-09T02:32:03.135Z,101273.66
2018-10-09T02:34:32.534Z,101265.76
2018-10-09T02:37:02.078Z,101259.59
2018-10-09T02:39:31.386Z,101258.73
2018-10-09T02:42:00.793Z,101267.56
2018-10-09T02:44:30.300Z,101267.16
2018-10-09T02:46:59.694Z,101280.85
2018-10-09T02:49:28.906Z,101277.30
2018-10-09T02:51:58.560Z,101282.59
2018-10-09T02:54:27.938Z,101273.34
2018-10-09T02:56:57.260Z,101259.70
2018-10-09T02:59:26.859Z,101254.41
2018-10-09T03:01:56.150Z,101256.14
2018-10-09T03:04:25.512Z,101251.77
2018-10-09T03:06:54.876Z,101246.03
2018-10-09T03:09:24.391Z,101247.37
2018-10-09T03:11:53.784Z,101245.59
2018-10-09T03:14:23.224Z,101247.37
2018-10-09T03:16:52.698Z,101258.86
2018-10-09T03:19:21.949Z,101269.84
2018-10-09T03:21:51.562Z,101257.05
2018-10-09T03:24:20.953Z,101256.17
2018-10-09T03:26:50.246Z,101254.84
2018-10-09T03:29:19.968Z,101257.94
2018-10-09T03:31:49.259Z,101260.58
2018-10-09T03:34:18.651Z,101258.79
2018-10-09T03:36:48.179Z,101257.47
2018-10-09T03:39:17.445Z,101256.16
2018-10-09T03:41:46.598Z,101263.64
2018-10-09T03:44:16.501Z,101266.72
2018-10-09T03:46:46.145Z,101262.73
2018-10-09T03:49:15.519Z,101259.63
2018-10-09T03:51:45.073Z,101251.70
2018-10-09T03:54:14.440Z,101258.31
2018-10-09T03:56:43.926Z,101255.25
2018-10-09T03:59:13.629Z,101253.48
2018-10-09T04:01:43.219Z,101248.59
2018-10-09T04:04:12.599Z,101239.78
2018-10-09T04:06:42.224Z,101244.63
2018-10-09T04:09:13.666Z,101245.95
2018-10-09T04:11:43.590Z,101251.66
2018-10-09T04:14:13.118Z,101250.36
2018-10-09T04:16:42.569Z,101254.34
2018-10-09T04:19:12.136Z,101277.27
2018-10-09T04:21:41.590Z,101279.46
2018-10-09T04:24:10.951Z,101282.11
2018-10-09T04:26:40.426Z,101286.93
2018-10-09T04:29:09.982Z,101274.60
2018-10-09T04:31:39.453Z,101268.87
2018-10-09T04:34:09.412Z,101260.50
2018-10-09T04:36:39.044Z,101264.90
2018-10-09T04:39:09.798Z,101276.34
2018-10-09T04:41:39.194Z,101278.98
2018-10-09T04:44:08.489Z,101277.19
2018-10-09T04:46:37.766Z,101267.53
2018-10-09T04:49:07.130Z,101267.06
2018-10-09T04:51:36.579Z,101258.25
2018-10-09T04:54:06.037Z,101254.28
2018-10-09T04:56:35.558Z,101249.85
2018-10-09T04:59:05.090Z,101241.91
2018-10-09T05:01:34.652Z,101230.90
2018-10-09T05:04:05.585Z,101226.95
2018-10-09T05:06:34.777Z,101230.45
2018-10-09T05:09:05.405Z,101230.48
2018-10-09T05:11:34.919Z,101222.99
2018-10-09T05:14:04.397Z,101232.23
2018-10-09T05:16:33.707Z,101233.16
2018-10-09T05:19:03.082Z,101226.95
2018-10-09T05:21:32.922Z,101233.16
2018-10-09T05:24:03.010Z,101236.26
2018-10-09T05:26:32.694Z,101227.86
2018-10-09T05:29:01.873Z,101228.25
2018-10-09T05:31:31.288Z,101222.50
2018-10-09T05:34:01.009Z,101223.41
2018-10-09T05:36:30.348Z,101216.37
2018-10-09T05:38:59.725Z,101219.47
2018-10-09T05:41:29.408Z,101230.04
2018-10-09T05:43:58.806Z,101230.04
2018-10-09T05:46:28.042Z,101123.53
2018-10-09T05:48:57.351Z,101246.30
2018-10-09T05:51:26.664Z,101259.55
2018-10-09T05:53:55.833Z,101266.19
2018-10-09T05:56:25.353Z,101266.59
2018-10-09T05:58:54.656Z,101275.41
2018-10-09T06:01:24.382Z,101268.38
2018-10-09T06:03:54.115Z,101166.74
2018-10-09T06:06:23.539Z,101279.80
2018-10-09T06:08:52.772Z,101281.13
2018-10-09T06:11:22.041Z,101288.61
2018-10-09T06:13:51.313Z,101293.47
2018-10-09T06:16:20.791Z,101301.80
2018-10-09T06:18:50.368Z,101309.66
2018-10-09T06:21:19.743Z,101310.10
2018-10-09T06:23:49.125Z,101309.23
2018-10-09T06:26:18.717Z,101309.66
2018-10-09T06:28:48.074Z,101310.55
2018-10-09T06:31:17.385Z,101320.22
2018-10-09T06:33:47.043Z,101325.95
2018-10-09T06:36:16.277Z,101315.78
2018-10-09T06:38:45.610Z,101300.03
2018-10-09T06:41:15.472Z,101318.41
2018-10-09T06:43:44.918Z,101307.81
2018-10-09T06:46:17.796Z,101321.89
2018-10-09T06:48:48.684Z,101329.81
2018-10-09T06:51:18.139Z,101317.00
2018-10-09T06:53:47.963Z,101339.47
2018-10-09T06:56:17.205Z,101330.67
2018-10-09T06:58:46.563Z,101325.35
2018-10-09T07:01:16.167Z,101320.92
2018-10-09T07:03:45.633Z,101202.53
2018-10-09T07:06:15.167Z,101323.98
2018-10-09T07:08:44.784Z,101321.41
2018-10-09T07:11:14.408Z,101313.06
2018-10-09T07:13:43.804Z,101324.97
2018-10-09T07:16:13.470Z,101330.67
2018-10-09T07:18:42.988Z,101332.48
2018-10-09T07:21:12.468Z,101343.04
2018-10-09T07:23:42.506Z,101340.39
2018-10-09T07:26:11.918Z,101347.45
2018-10-09T07:28:41.417Z,101351.00
2018-10-09T07:31:10.914Z,101356.25
2018-10-09T07:33:40.306Z,101368.16
2018-10-09T07:36:09.967Z,101348.28
2018-10-09T07:38:39.577Z,101356.23
2018-10-09T07:41:09.141Z,101350.49
2018-10-09T07:43:38.493Z,101344.34
2018-10-09T07:46:08.150Z,101351.42
2018-10-09T07:48:37.595Z,101342.16
2018-10-09T07:51:07.347Z,101346.98
2018-10-09T07:53:36.856Z,101359.78
2018-10-09T07:56:06.344Z,101350.03
2018-10-09T07:58:35.612Z,101348.70
2018-10-09T08:01:05.576Z,101348.30
2018-10-09T08:03:35.012Z,101350.94
2018-10-09T08:06:04.411Z,101347.34
2018-10-09T08:08:34.122Z,101345.55
2018-10-09T08:11:03.542Z,101350.00
2018-10-09T08:13:32.934Z,101361.00
2018-10-09T08:16:02.425Z,101357.03
2018-10-09T08:18:31.934Z,101349.13
2018-10-09T08:21:01.296Z,101349.98
2018-10-09T08:23:31.144Z,101340.25
2018-10-09T08:26:00.480Z,101344.17
2018-10-09T08:28:30.296Z,101347.27
2018-10-09T08:30:59.853Z,101338.84
2018-10-09T08:33:29.176Z,101336.69
2018-10-09T08:35:58.369Z,101332.73
2018-10-09T08:38:28.122Z,101341.56
2018-10-09T08:40:57.496Z,101346.41
2018-10-09T08:43:27.015Z,101340.64
2018-10-09T08:45:56.557Z,101351.27
2018-10-09T08:48:25.764Z,101345.06
2018-10-09T08:50:55.135Z,101343.28
2018-10-09T08:53:24.714Z,101339.34
2018-10-09T08:55:54.362Z,101338.40
2018-10-09T08:58:24.130Z,101339.26
2018-10-09T09:00:53.705Z,101339.67
2018-10-09T09:03:23.319Z,101340.14
2018-10-09T09:05:52.533Z,101337.55
2018-10-09T09:08:22.340Z,101347.66
2018-10-09T09:10:51.756Z,101351.20
2018-10-09T09:13:21.316Z,101349.45
2018-10-09T09:15:50.909Z,101365.76
2018-10-09T09:18:20.463Z,101375.43
2018-10-09T09:20:49.804Z,101375.05
2018-10-09T09:23:19.418Z,101374.59
2018-10-09T09:25:48.791Z,101360.48
2018-10-09T09:28:18.315Z,101366.15
2018-10-09T09:30:47.813Z,101370.06
2018-10-09T09:33:17.380Z,101369.59
2018-10-09T09:35:46.762Z,101359.51
2018-10-09T09:38:16.326Z,101366.52
2018-10-09T09:40:46.060Z,101347.98
2018-10-09T09:43:16.036Z,101358.56
2018-10-09T09:45:45.541Z,101373.57
2018-10-09T09:48:15.062Z,101373.57
2018-10-09T09:50:44.803Z,101374.43
2018-10-09T09:53:14.581Z,101383.23
2018-10-09T09:55:44.188Z,101386.75
2018-10-09T09:58:13.629Z,101384.11
2018-10-09T10:00:48.065Z,101372.17
2018-10-09T10:03:17.406Z,101378.79
2018-10-09T10:05:47.045Z,101377.89
2018-10-09T10:08:16.458Z,101382.77
2018-10-09T10:10:45.821Z,101386.70
2018-10-09T10:13:15.320Z,101382.30
2018-10-09T10:15:44.932Z,101385.83
2018-10-09T10:18:14.824Z,101382.27
2018-10-09T10:20:44.237Z,101371.69
2018-10-09T10:23:13.940Z,101376.95
2018-10-09T10:25:43.876Z,101377.42
2018-10-09T10:28:13.541Z,101382.22
2018-10-09T10:30:43.179Z,101380.92
2018-10-09T10:33:12.690Z,101376.06
2018-10-09T10:35:42.247Z,101377.80
2018-10-09T10:38:11.512Z,101373.41
2018-10-09T10:40:41.338Z,101377.80
2018-10-09T10:43:10.748Z,101371.63
2018-10-09T10:45:40.352Z,101380.04
2018-10-09T10:48:10.117Z,101362.36
2018-10-09T10:50:39.436Z,101364.09
2018-10-09T10:53:09.075Z,101368.54
2018-10-09T10:55:38.824Z,101357.95
2018-10-09T10:58:08.594Z,101360.09
2018-10-09T11:00:37.889Z,101365.34
2018-10-09T11:03:07.713Z,101369.22
2018-10-09T11:05:37.148Z,101358.19
2018-10-09T11:08:06.512Z,101354.16
2018-10-09T11:10:36.183Z,101367.40
2018-10-09T11:13:05.825Z,101352.45
2018-10-09T11:15:35.392Z,101351.59
2018-10-09T11:18:05.306Z,101360.87
2018-10-09T11:20:34.546Z,101358.22
2018-10-09T11:23:04.393Z,101349.36
2018-10-09T11:25:33.960Z,101350.12
2018-10-09T11:28:03.366Z,101338.07
2018-10-09T11:30:32.681Z,101300.86
2018-10-09T11:33:02.277Z,101341.16
2018-10-09T11:35:31.878Z,101342.90
2018-10-09T11:38:01.119Z,101348.16
2018-10-09T11:40:30.701Z,101347.69
2018-10-09T11:42:59.936Z,101349.83
2018-10-09T11:45:29.361Z,101353.40
2018-10-09T11:47:59.488Z,101345.45
2018-10-09T11:50:29.265Z,101333.86
2018-10-09T11:52:58.902Z,101334.72
2018-10-09T11:55:28.456Z,101356.39
2018-10-09T11:57:57.658Z,101354.22
2018-10-09T12:00:27.130Z,101348.61
2018-10-09T12:02:56.832Z,101353.50
2018-10-09T12:05:26.225Z,101363.27
2018-10-09T12:07:55.602Z,101365.89
2018-10-09T12:10:25.261Z,101365.02
2018-10-09T12:12:54.722Z,101365.89
2018-10-09T12:15:24.070Z,101362.33
2018-10-09T12:17:53.799Z,101368.48
2018-10-09T12:20:23.328Z,101357.91
2018-10-09T12:22:53.349Z,101343.34
2018-10-09T12:25:23.503Z,101349.08
2018-10-09T12:27:53.161Z,101347.31
2018-10-09T12:30:22.460Z,101341.57
2018-10-09T12:32:52.217Z,101347.66
2018-10-09T12:35:22.020Z,101344.53
2018-10-09T12:37:51.334Z,101350.28
2018-10-09T12:40:21.395Z,101360.78
2018-10-09T12:42:50.651Z,101360.30
2018-10-09T12:45:19.993Z,101369.11
2018-10-09T12:47:49.368Z,101367.30
2018-10-09T12:50:18.833Z,101372.61
2018-10-09T12:52:48.294Z,101376.14
2018-10-09T12:55:17.948Z,101369.14
2018-10-09T12:57:47.557Z,101370.84
2018-10-09T13:00:16.974Z,101361.12
2018-10-09T13:02:46.584Z,101374.34
2018-10-09T13:05:16.023Z,101355.75
2018-10-09T13:07:45.609Z,101355.72
2018-10-09T13:10:15.130Z,101346.40
2018-10-09T13:12:44.877Z,101349.42
2018-10-09T13:15:14.608Z,101359.59
2018-10-09T13:17:44.590Z,101352.92
2018-10-09T13:20:14.035Z,101344.08
2018-10-09T13:22:43.466Z,101348.05
2018-10-09T13:25:13.352Z,101348.46
2018-10-09T13:27:42.988Z,101340.43
2018-10-09T13:30:13.002Z,101339.95
2018-10-09T13:32:43.117Z,101341.80
2018-10-09T13:35:12.512Z,101330.75
2018-10-09T13:37:42.320Z,101343.20
2018-10-09T13:40:12.345Z,101345.84
2018-10-09T13:42:42.376Z,101339.70
2018-10-09T13:45:12.418Z,101341.50
2018-10-09T13:47:42.081Z,101348.13
2018-10-09T13:50:11.952Z,101348.61
2018-10-09T13:52:41.801Z,101345.95
2018-10-09T13:55:11.407Z,101340.69
2018-10-09T13:57:40.770Z,101342.45
2018-10-09T14:00:10.785Z,101338.04
2018-10-09T14:02:40.309Z,101346.88
2018-10-09T14:05:09.881Z,101345.04
2018-10-09T14:07:39.623Z,101340.62
2018-10-09T14:10:09.054Z,101347.24
2018-10-09T14:12:38.397Z,101351.22
2018-10-09T14:15:08.076Z,101343.20
2018-10-09T14:17:37.624Z,101339.18
2018-10-09T14:20:07.052Z,101344.12
2018-10-09T14:22:36.670Z,101343.27
2018-10-09T14:25:06.730Z,101344.96
2018-10-09T14:27:36.312Z,101349.38
2018-10-09T14:30:05.998Z,101353.88
2018-10-09T14:32:35.423Z,101347.17
2018-10-09T14:35:05.344Z,101358.33
2018-10-09T14:37:34.974Z,101353.50
2018-10-09T14:40:04.721Z,101351.22
2018-10-09T14:42:34.060Z,101343.30
2018-10-09T14:45:03.761Z,101347.31
2018-10-09T14:47:33.305Z,101341.61
2018-10-09T14:50:03.244Z,101350.45
2018-10-09T14:52:32.898Z,101349.05
2018-10-09T14:55:02.332Z,101359.25
2018-10-09T14:57:31.931Z,101359.31
2018-10-09T15:00:02.543Z,101373.90
2018-10-09T15:02:31.991Z,101368.59
2018-10-09T15:05:01.468Z,101370.81
2018-10-09T15:07:31.017Z,101365.98
2018-10-09T15:10:00.071Z,101352.69
2018-10-09T15:12:29.465Z,101351.77
2018-10-09T15:14:59.028Z,101357.55
2018-10-09T15:17:28.058Z,101357.11
2018-10-09T15:19:57.364Z,101358.91
2018-10-09T15:22:27.241Z,101346.13
2018-10-09T15:24:56.606Z,101356.84
2018-10-09T15:27:26.004Z,101359.92
2018-10-09T15:29:55.734Z,101359.52
2018-10-09T15:32:25.312Z,101361.31
2018-10-09T15:34:54.700Z,101356.05
2018-10-09T15:37:24.292Z,101365.73
2018-10-09T15:39:53.930Z,101358.73
2018-10-09T15:42:23.251Z,101367.53
2018-10-09T15:44:52.869Z,101378.14
2018-10-09T15:47:22.450Z,101379.49
2018-10-09T15:49:51.971Z,101379.05
2018-10-09T15:52:21.473Z,101371.55
2018-10-09T15:54:50.922Z,101379.52
2018-10-09T15:57:20.094Z,101387.03
2018-10-09T15:59:49.498Z,101384.38
2018-10-09T16:02:18.950Z,101390.09
2018-10-09T16:04:48.383Z,101387.95
2018-10-09T16:07:18.169Z,101390.59
2018-10-09T16:09:47.599Z,101393.69
2018-10-09T16:12:16.817Z,101396.81
2018-10-09T16:14:46.537Z,101402.99
2018-10-09T16:17:15.964Z,101408.31
2018-10-09T16:19:45.211Z,101410.05
2018-10-09T16:22:14.964Z,101412.73
2018-10-09T16:24:44.496Z,101410.97
2018-10-09T16:27:13.784Z,101417.09
2018-10-09T16:29:43.359Z,101300.49
2018-10-09T16:32:13.337Z,101434.77
2018-10-09T16:34:43.080Z,101439.20
2018-10-09T16:37:12.531Z,101432.58
2018-10-09T16:39:41.911Z,101437.91
2018-10-09T16:42:11.448Z,101445.41
2018-10-09T16:44:40.862Z,101439.27
2018-10-09T16:47:10.330Z,101444.64
2018-10-09T16:49:39.977Z,101440.22
2018-10-09T16:52:09.430Z,101450.85
2018-10-09T16:54:38.635Z,101457.06
2018-10-09T16:57:07.739Z,101460.59
2018-10-09T16:59:37.243Z,101465.86
2018-10-09T17:02:06.765Z,101464.20
2018-10-09T17:04:36.242Z,101454.91
2018-10-09T17:07:06.191Z,101464.14
2018-10-09T17:09:35.706Z,101468.98
2018-10-09T17:12:04.848Z,101475.55
2018-10-09T17:14:34.236Z,101479.94
2018-10-09T17:17:03.447Z,101479.08
2018-10-09T17:19:32.699Z,101480.44
2018-10-09T17:22:02.185Z,101485.28
2018-10-09T17:24:31.416Z,101469.41
2018-10-09T17:27:00.576Z,101479.08
2018-10-09T17:29:30.176Z,101475.52
2018-10-09T17:31:59.589Z,101470.22
2018-10-09T17:34:28.963Z,101476.88
2018-10-09T17:36:58.243Z,101472.04
2018-10-09T17:39:28.142Z,101475.65
2018-10-09T17:41:57.317Z,101475.75
2018-10-09T17:44:26.806Z,101477.07
2018-10-09T17:46:55.986Z,101472.27
2018-10-09T17:49:25.149Z,101482.83
2018-10-09T17:51:54.476Z,101493.42
2018-10-09T17:54:24.494Z,101501.39
2018-10-09T17:56:53.572Z,101363.50
2018-10-09T17:59:24.322Z,101510.24
2018-10-09T18:01:53.389Z,101508.03
2018-10-09T18:04:22.456Z,101508.91
2018-10-09T18:06:52.069Z,101519.53
2018-10-09T18:09:21.621Z,101529.23
2018-10-09T18:11:50.972Z,101517.31
2018-10-09T18:14:20.376Z,101519.97
2018-10-09T18:16:49.588Z,101517.34
2018-10-09T18:19:18.832Z,101511.16
2018-10-09T18:21:48.210Z,101512.06
2018-10-09T18:24:17.368Z,101516.45
2018-10-09T18:26:46.582Z,101529.68
2018-10-09T18:29:16.026Z,101533.64
2018-10-09T18:31:45.669Z,101536.23
2018-10-09T18:34:14.990Z,101544.63
2018-10-09T18:36:44.572Z,101549.89
2018-10-09T18:39:16.241Z,101534.02
2018-10-09T18:41:46.562Z,101541.09
2018-10-09T18:44:16.060Z,101535.80
2018-10-09T18:46:45.266Z,101531.38
2018-10-09T18:49:14.724Z,101526.97
2018-10-09T18:51:44.072Z,101533.56
2018-10-09T18:54:13.376Z,101519.86
2018-10-09T18:56:42.708Z,101527.38
2018-10-09T18:59:12.077Z,101534.42
2018-10-09T19:01:41.431Z,101535.80
2018-10-09T19:04:11.036Z,101539.31
2018-10-09T19:06:40.543Z,101534.02
2018-10-09T19:09:12.450Z,101533.10
2018-10-09T19:11:41.902Z,101520.30
2018-10-09T19:14:10.957Z,101524.30
2018-10-09T19:16:40.377Z,101526.95
2018-10-09T19:19:09.722Z,101532.24
2018-10-09T19:21:38.975Z,101533.14
2018-10-09T19:24:08.652Z,101535.37
2018-10-09T19:26:38.015Z,101535.82
2018-10-09T19:29:07.162Z,101533.19
2018-10-09T19:31:36.467Z,101549.95
2018-10-09T19:34:06.239Z,101545.55
2018-10-09T19:36:35.398Z,101538.51
2018-10-09T19:39:07.007Z,101547.78
2018-10-09T19:41:36.459Z,101550.42
2018-10-09T19:44:06.804Z,101559.69
2018-10-09T19:46:36.452Z,101564.97
2018-10-09T19:49:07.548Z,101561.45
2018-10-09T19:51:37.173Z,101449.83
2018-10-09T19:54:06.609Z,101572.03
2018-10-09T19:56:36.089Z,101577.31
2018-10-09T19:59:06.228Z,101580.41
2018-10-09T20:01:35.327Z,101577.28
2018-10-09T20:04:04.575Z,101578.62
2018-10-09T20:06:33.738Z,101575.52
2018-10-09T20:09:02.900Z,101587.00
2018-10-09T20:11:32.456Z,101584.35
2018-10-09T20:14:01.492Z,101593.64
2018-10-09T20:16:30.613Z,101594.95
2018-10-09T20:18:59.947Z,101588.33
2018-10-09T20:21:29.095Z,101598.05
2018-10-09T20:23:58.242Z,101593.17
2018-10-09T20:26:27.785Z,101602.89
2018-10-09T20:28:57.057Z,101594.50
2018-10-09T20:31:26.205Z,101589.25
2018-10-09T20:33:55.837Z,101596.72
2018-10-09T20:36:25.443Z,101597.59
2018-10-09T20:38:54.539Z,101606.46
2018-10-09T20:41:24.573Z,101600.72
2018-10-09T20:43:53.785Z,101604.69
2018-10-09T20:46:23.352Z,101604.69
2018-10-09T20:48:52.517Z,101613.08
2018-10-09T20:51:22.250Z,101610.84
2018-10-09T20:53:51.475Z,101608.22
2018-10-09T20:56:21.201Z,101615.27
2018-10-09T20:58:50.407Z,101618.34
2018-10-09T21:01:19.917Z,101625.91
2018-10-09T21:03:49.313Z,101629.84
2018-10-09T21:06:19.593Z,101629.41
2018-10-09T21:08:48.720Z,101627.20
2018-10-09T21:11:18.308Z,101633.36
2018-10-09T21:13:47.482Z,101634.69
2018-10-09T21:16:17.211Z,101637.33
2018-10-09T21:18:46.883Z,101641.73
2018-10-09T21:21:16.151Z,101641.75
2018-10-09T21:23:45.788Z,101640.43
2018-10-09T21:26:15.164Z,101639.11
2018-10-09T21:28:44.593Z,101643.05
2018-10-09T21:31:14.085Z,101647.47
2018-10-09T21:33:43.478Z,101639.11
2018-10-09T21:36:12.577Z,101649.70
2018-10-09T21:38:41.592Z,101647.92
2018-10-09T21:41:10.986Z,101649.27
2018-10-09T21:43:40.000Z,101641.75
2018-10-09T21:46:08.967Z,101647.03
2018-10-09T21:48:38.316Z,101646.14
2018-10-09T21:51:07.504Z,101645.28
2018-10-09T21:53:37.280Z,101650.56
2018-10-09T21:56:06.513Z,101650.56
2018-10-09T21:58:35.712Z,101628.59
2018-10-09T22:01:10.556Z,101654.08
2018-10-09T22:03:40.089Z,101650.59
2018-10-09T22:06:09.748Z,101647.92
2018-10-09T22:08:46.748Z,101643.50
2018-10-09T22:11:15.888Z,101649.69
2018-10-09T22:13:45.267Z,101641.75
2018-10-09T22:16:14.781Z,101641.77
2018-10-09T22:18:44.852Z,101647.53
2018-10-09T22:21:14.013Z,101647.53
2018-10-09T22:23:43.574Z,101645.34
2018-10-09T22:26:12.648Z,101651.50
2018-10-09T22:28:41.615Z,101655.48
2018-10-09T22:31:10.994Z,101654.17
2018-10-09T22:33:40.208Z,101664.35
2018-10-09T22:36:09.352Z,101667.45
2018-10-09T22:38:39.079Z,101668.78
2018-10-09T22:41:08.482Z,101668.33
2018-10-09T22:43:37.599Z,101673.62
2018-10-09T22:46:06.961Z,101670.06
2018-10-09T22:48:36.188Z,101675.38
2018-10-09T22:51:05.577Z,101678.01
2018-10-09T22:53:34.785Z,101681.11
2018-10-09T22:56:04.052Z,101680.67
2018-10-09T22:58:33.017Z,101681.16
2018-10-09T23:01:02.261Z,101682.89
2018-10-09T23:03:31.407Z,101693.94
2018-10-09T23:06:00.502Z,101697.45
2018-10-09T23:08:29.722Z,101692.16
2018-10-09T23:10:58.665Z,101695.67
2018-10-09T23:13:27.607Z,101701.02
2018-10-09T23:15:57.012Z,101703.66
2018-10-09T23:18:26.110Z,101706.31
2018-10-09T23:20:55.326Z,101711.16
2018-10-09T23:23:24.705Z,101725.70
2018-10-09T23:25:53.884Z,101723.06
2018-10-09T23:28:23.092Z,101729.22
2018-10-09T23:30:52.321Z,101742.46
2018-10-09T23:33:21.405Z,101739.81
2018-10-09T23:35:50.438Z,101738.50
2018-10-09T23:38:19.661Z,101741.15
2018-10-09T23:40:48.628Z,101744.25
2018-10-09T23:43:17.749Z,101743.36
2018-10-09T23:45:46.915Z,101743.80
2018-10-09T23:48:16.167Z,101751.30
2018-10-09T23:50:45.415Z,101751.27
2018-10-09T23:53:15.359Z,101753.47
2018-10-09T23:55:44.734Z,101744.66
2018-10-09T23:58:14.064Z,101748.22
